sensor_id;sensor_type;location;lat;lon;timestamp;pressure;altitude;pressure_sealevel;temperature;humidity
38806;BME280;25635;51.146;17.162;2023-02-01T00:00:16;99552.44;;;1.59;93.24
38806;BME280;25635;51.146;17.162;2023-02-01T00:03:02;99544.15;;;1.56;93.10
38806;BME280;25635;51.146;17.162;2023-02-01T00:05:28;99548.25;;;1.54;92.72
38806;BME280;25635;51.146;17.162;2023-02-01T00:07:54;99549.59;;;1.53;92.65
38806;BME280;25635;51.146;17.162;2023-02-01T00:10:20;99545.44;;;1.51;92.63
38806;BME280;25635;51.146;17.162;2023-02-01T00:12:46;99544.56;;;1.51;92.57
38806;BME280;25635;51.146;17.162;2023-02-01T00:15:12;99536.98;;;1.49;92.53
38806;BME280;25635;51.146;17.162;2023-02-01T00:17:38;99535.21;;;1.47;92.23
38806;BME280;25635;51.146;17.162;2023-02-01T00:20:04;99537.24;;;1.46;92.14
38806;BME280;25635;51.146;17.162;2023-02-01T00:22:30;99538.24;;;1.43;91.99
38806;BME280;25635;51.146;17.162;2023-02-01T00:24:56;99537.02;;;1.42;92.14
38806;BME280;25635;51.146;17.162;2023-02-01T00:27:22;99539.88;;;1.39;92.03
38806;BME280;25635;51.146;17.162;2023-02-01T00:29:49;99537.77;;;1.37;92.08
38806;BME280;25635;51.146;17.162;2023-02-01T00:32:24;99541.67;;;1.34;92.38
38806;BME280;25635;51.146;17.162;2023-02-01T00:34:54;99547.33;;;1.33;92.69
38806;BME280;25635;51.146;17.162;2023-02-01T00:37:20;99548.71;;;1.33;92.90
38806;BME280;25635;51.146;17.162;2023-02-01T00:39:47;99553.34;;;1.34;93.01
38806;BME280;25635;51.146;17.162;2023-02-01T00:42:13;99555.41;;;1.34;92.99
38806;BME280;25635;51.146;17.162;2023-02-01T00:44:39;99557.66;;;1.35;92.95
38806;BME280;25635;51.146;17.162;2023-02-01T00:47:05;99558.02;;;1.35;93.08
38806;BME280;25635;51.146;17.162;2023-02-01T00:49:31;99554.45;;;1.37;93.25
38806;BME280;25635;51.146;17.162;2023-02-01T00:51:58;99549.34;;;1.40;93.54
38806;BME280;25635;51.146;17.162;2023-02-01T00:54:24;99547.68;;;1.43;93.70
38806;BME280;25635;51.146;17.162;2023-02-01T00:56:50;99546.37;;;1.46;93.55
38806;BME280;25635;51.146;17.162;2023-02-01T00:59:16;99548.31;;;1.49;93.84
38806;BME280;25635;51.146;17.162;2023-02-01T01:01:42;99552.66;;;1.52;94.02
38806;BME280;25635;51.146;17.162;2023-02-01T01:04:08;99552.58;;;1.56;94.47
38806;BME280;25635;51.146;17.162;2023-02-01T01:06:34;99552.63;;;1.60;94.41
38806;BME280;25635;51.146;17.162;2023-02-01T01:09:03;99552.17;;;1.64;94.44
38806;BME280;25635;51.146;17.162;2023-02-01T01:11:33;99552.25;;;1.68;94.34
38806;BME280;25635;51.146;17.162;2023-02-01T01:14:00;99554.02;;;1.71;94.63
38806;BME280;25635;51.146;17.162;2023-02-01T01:16:28;99548.41;;;1.74;94.63
38806;BME280;25635;51.146;17.162;2023-02-01T01:18:56;99545.19;;;1.77;94.53
38806;BME280;25635;51.146;17.162;2023-02-01T01:21:22;99544.73;;;1.80;94.43
38806;BME280;25635;51.146;17.162;2023-02-01T01:23:48;99546.50;;;1.83;94.41
38806;BME280;25635;51.146;17.162;2023-02-01T01:26:17;99545.48;;;1.84;94.24
38806;BME280;25635;51.146;17.162;2023-02-01T01:28:43;99546.54;;;1.86;94.22
38806;BME280;25635;51.146;17.162;2023-02-01T01:31:13;99555.16;;;1.87;94.00
38806;BME280;25635;51.146;17.162;2023-02-01T01:33:43;99553.80;;;1.88;94.14
38806;BME280;25635;51.146;17.162;2023-02-01T01:36:10;99550.38;;;1.89;93.74
38806;BME280;25635;51.146;17.162;2023-02-01T01:38:38;99543.50;;;1.89;93.69
38806;BME280;25635;51.146;17.162;2023-02-01T01:41:04;99544.02;;;1.90;93.41
38806;BME280;25635;51.146;17.162;2023-02-01T01:47:02;99540.09;;;1.91;92.89
38806;BME280;25635;51.146;17.162;2023-02-01T01:49:36;99545.58;;;1.90;92.65
38806;BME280;25635;51.146;17.162;2023-02-01T01:52:05;99552.43;;;1.89;92.51
38806;BME280;25635;51.146;17.162;2023-02-01T01:54:36;99555.85;;;1.88;91.99
38806;BME280;25635;51.146;17.162;2023-02-01T01:57:13;99566.00;;;1.88;91.66
38806;BME280;25635;51.146;17.162;2023-02-01T01:59:43;99563.27;;;1.89;91.84
38806;BME280;25635;51.146;17.162;2023-02-01T02:02:12;99563.45;;;1.90;91.93
38806;BME280;25635;51.146;17.162;2023-02-01T02:04:38;99557.91;;;1.88;92.21
38806;BME280;25635;51.146;17.162;2023-02-01T02:07:11;99562.02;;;1.86;92.33
38806;BME280;25635;51.146;17.162;2023-02-01T02:09:40;99567.16;;;1.85;92.95
38806;BME280;25635;51.146;17.162;2023-02-01T02:12:09;99567.65;;;1.84;92.95
38806;BME280;25635;51.146;17.162;2023-02-01T02:14:36;99563.17;;;1.83;93.06
38806;BME280;25635;51.146;17.162;2023-02-01T02:19:48;99562.98;;;1.81;93.53
38806;BME280;25635;51.146;17.162;2023-02-01T02:22:45;99564.84;;;1.80;93.55
38806;BME280;25635;51.146;17.162;2023-02-01T02:25:19;99561.74;;;1.80;93.47
38806;BME280;25635;51.146;17.162;2023-02-01T02:33:39;99561.63;;;1.83;93.67
38806;BME280;25635;51.146;17.162;2023-02-01T02:39:06;99551.81;;;1.92;93.78
38806;BME280;25635;51.146;17.162;2023-02-01T02:45:03;99553.02;;;2.03;93.39
38806;BME280;25635;51.146;17.162;2023-02-01T02:50:49;99555.45;;;2.16;92.83
38806;BME280;25635;51.146;17.162;2023-02-01T02:53:56;99555.02;;;2.21;92.25
38806;BME280;25635;51.146;17.162;2023-02-01T02:56:42;99554.05;;;2.26;92.05
38806;BME280;25635;51.146;17.162;2023-02-01T02:59:28;99559.78;;;2.29;91.93
38806;BME280;25635;51.146;17.162;2023-02-01T03:02:15;99561.89;;;2.32;91.55
38806;BME280;25635;51.146;17.162;2023-02-01T03:05:01;99561.26;;;2.36;90.93
38806;BME280;25635;51.146;17.162;2023-02-01T03:10:35;99561.73;;;2.45;90.13
38806;BME280;25635;51.146;17.162;2023-02-01T03:13:05;99562.33;;;2.50;89.85
38806;BME280;25635;51.146;17.162;2023-02-01T03:15:59;99559.27;;;2.53;90.21
38806;BME280;25635;51.146;17.162;2023-02-01T03:18:48;99563.59;;;2.54;89.58
38806;BME280;25635;51.146;17.162;2023-02-01T03:21:41;99569.80;;;2.55;89.12
38806;BME280;25635;51.146;17.162;2023-02-01T03:24:16;99568.64;;;2.58;88.63
38806;BME280;25635;51.146;17.162;2023-02-01T03:26:53;99572.96;;;2.60;88.70
38806;BME280;25635;51.146;17.162;2023-02-01T03:29:29;99575.23;;;2.60;88.38
38806;BME280;25635;51.146;17.162;2023-02-01T03:31:58;99573.52;;;2.63;87.27
38806;BME280;25635;51.146;17.162;2023-02-01T03:34:24;99569.77;;;2.64;88.08
38806;BME280;25635;51.146;17.162;2023-02-01T03:36:52;99568.38;;;2.64;87.85
38806;BME280;25635;51.146;17.162;2023-02-01T03:39:54;99572.66;;;2.63;87.44
38806;BME280;25635;51.146;17.162;2023-02-01T03:42:24;99573.33;;;2.61;87.94
38806;BME280;25635;51.146;17.162;2023-02-01T03:45:01;99574.52;;;2.60;87.68
38806;BME280;25635;51.146;17.162;2023-02-01T03:47:34;99571.42;;;2.60;87.65
38806;BME280;25635;51.146;17.162;2023-02-01T03:50:04;99567.48;;;2.60;87.62
38806;BME280;25635;51.146;17.162;2023-02-01T03:52:43;99561.96;;;2.61;87.22
38806;BME280;25635;51.146;17.162;2023-02-01T03:55:11;99558.00;;;2.60;87.12
38806;BME280;25635;51.146;17.162;2023-02-01T03:57:46;99553.36;;;2.61;87.15
38806;BME280;25635;51.146;17.162;2023-02-01T04:00:22;99557.28;;;2.58;87.20
38806;BME280;25635;51.146;17.162;2023-02-01T04:02:49;99555.17;;;2.55;87.12
38806;BME280;25635;51.146;17.162;2023-02-01T04:05:16;99554.09;;;2.51;87.02
38806;BME280;25635;51.146;17.162;2023-02-01T04:07:42;99548.38;;;2.49;86.79
38806;BME280;25635;51.146;17.162;2023-02-01T04:10:10;99543.53;;;2.48;87.01
38806;BME280;25635;51.146;17.162;2023-02-01T04:12:36;99538.85;;;2.45;86.95
38806;BME280;25635;51.146;17.162;2023-02-01T04:15:02;99536.92;;;2.42;87.14
38806;BME280;25635;51.146;17.162;2023-02-01T04:17:29;99539.29;;;2.39;86.80
38806;BME280;25635;51.146;17.162;2023-02-01T04:19:55;99540.11;;;2.37;86.72
38806;BME280;25635;51.146;17.162;2023-02-01T04:22:21;99537.31;;;2.35;86.52
38806;BME280;25635;51.146;17.162;2023-02-01T04:24:48;99534.90;;;2.34;86.67
38806;BME280;25635;51.146;17.162;2023-02-01T04:27:14;99534.38;;;2.32;86.64
38806;BME280;25635;51.146;17.162;2023-02-01T04:29:40;99532.48;;;2.32;86.73
38806;BME280;25635;51.146;17.162;2023-02-01T04:32:07;99537.95;;;2.30;86.94
38806;BME280;25635;51.146;17.162;2023-02-01T04:34:33;99532.23;;;2.28;86.41
38806;BME280;25635;51.146;17.162;2023-02-01T04:36:59;99533.09;;;2.27;86.05
38806;BME280;25635;51.146;17.162;2023-02-01T04:39:25;99533.09;;;2.28;86.56
38806;BME280;25635;51.146;17.162;2023-02-01T04:41:51;99533.42;;;2.27;86.43
38806;BME280;25635;51.146;17.162;2023-02-01T04:44:18;99533.42;;;2.27;85.99
38806;BME280;25635;51.146;17.162;2023-02-01T04:46:45;99532.08;;;2.29;86.11
38806;BME280;25635;51.146;17.162;2023-02-01T04:49:13;99528.15;;;2.30;86.15
38806;BME280;25635;51.146;17.162;2023-02-01T04:51:40;99532.48;;;2.32;85.90
38806;BME280;25635;51.146;17.162;2023-02-01T04:54:07;99535.60;;;2.34;85.75
38806;BME280;25635;51.146;17.162;2023-02-01T04:56:34;99532.72;;;2.38;85.99
38806;BME280;25635;51.146;17.162;2023-02-01T04:59:04;99534.48;;;2.40;85.25
38806;BME280;25635;51.146;17.162;2023-02-01T05:01:30;99537.84;;;2.46;85.06
38806;BME280;25635;51.146;17.162;2023-02-01T05:03:57;99535.31;;;2.50;85.34
38806;BME280;25635;51.146;17.162;2023-02-01T05:06:23;99531.59;;;2.54;85.17
38806;BME280;25635;51.146;17.162;2023-02-01T05:08:49;99533.85;;;2.56;85.79
38806;BME280;25635;51.146;17.162;2023-02-01T05:11:15;99534.20;;;2.57;85.38
38806;BME280;25635;51.146;17.162;2023-02-01T05:14:00;99533.57;;;2.60;84.75
38806;BME280;25635;51.146;17.162;2023-02-01T05:16:26;99534.62;;;2.62;84.92
38806;BME280;25635;51.146;17.162;2023-02-01T05:18:53;99532.27;;;2.66;85.14
38806;BME280;25635;51.146;17.162;2023-02-01T05:21:19;99528.48;;;2.67;84.50
38806;BME280;25635;51.146;17.162;2023-02-01T05:23:45;99522.67;;;2.70;83.77
38806;BME280;25635;51.146;17.162;2023-02-01T05:26:30;99524.62;;;2.75;83.39
38806;BME280;25635;51.146;17.162;2023-02-01T05:28:56;99523.46;;;2.78;82.84
38806;BME280;25635;51.146;17.162;2023-02-01T05:31:23;99521.27;;;2.83;82.61
38806;BME280;25635;51.146;17.162;2023-02-01T05:33:50;99520.83;;;2.87;82.78
38806;BME280;25635;51.146;17.162;2023-02-01T05:36:16;99513.29;;;2.91;83.55
38806;BME280;25635;51.146;17.162;2023-02-01T05:38:42;99517.26;;;2.92;82.89
38806;BME280;25635;51.146;17.162;2023-02-01T05:41:08;99512.81;;;2.95;82.51
38806;BME280;25635;51.146;17.162;2023-02-01T05:43:34;99516.28;;;2.95;83.75
38806;BME280;25635;51.146;17.162;2023-02-01T05:46:00;99513.67;;;2.94;83.56
38806;BME280;25635;51.146;17.162;2023-02-01T05:48:26;99510.38;;;2.93;83.24
38806;BME280;25635;51.146;17.162;2023-02-01T05:50:53;99509.67;;;2.91;83.12
38806;BME280;25635;51.146;17.162;2023-02-01T05:53:19;99501.92;;;2.91;82.74
38806;BME280;25635;51.146;17.162;2023-02-01T05:55:45;99498.12;;;2.90;83.15
38806;BME280;25635;51.146;17.162;2023-02-01T05:58:11;99497.39;;;2.87;82.40
38806;BME280;25635;51.146;17.162;2023-02-01T06:00:38;99492.59;;;2.87;82.27
38806;BME280;25635;51.146;17.162;2023-02-01T06:03:05;99490.35;;;2.88;81.74
38806;BME280;25635;51.146;17.162;2023-02-01T06:05:31;99483.81;;;2.88;82.34
38806;BME280;25635;51.146;17.162;2023-02-01T06:07:57;99482.92;;;2.86;82.04
38806;BME280;25635;51.146;17.162;2023-02-01T06:10:24;99480.87;;;2.87;82.33
38806;BME280;25635;51.146;17.162;2023-02-01T06:12:50;99478.61;;;2.86;81.69
38806;BME280;25635;51.146;17.162;2023-02-01T06:15:17;99477.95;;;2.88;81.67
38806;BME280;25635;51.146;17.162;2023-02-01T06:17:45;99477.64;;;2.91;81.70
38806;BME280;25635;51.146;17.162;2023-02-01T06:20:13;99478.02;;;2.93;82.37
38806;BME280;25635;51.146;17.162;2023-02-01T06:22:40;99477.68;;;2.94;81.94
38806;BME280;25635;51.146;17.162;2023-02-01T06:25:08;99477.19;;;2.97;81.18
38806;BME280;25635;51.146;17.162;2023-02-01T06:27:35;99473.27;;;2.99;81.71
38806;BME280;25635;51.146;17.162;2023-02-01T06:30:03;99479.32;;;3.02;80.55
38806;BME280;25635;51.146;17.162;2023-02-01T06:32:30;99479.03;;;3.07;81.27
38806;BME280;25635;51.146;17.162;2023-02-01T06:34:56;99481.13;;;3.10;81.66
38806;BME280;25635;51.146;17.162;2023-02-01T06:37:23;99483.55;;;3.11;81.63
38806;BME280;25635;51.146;17.162;2023-02-01T06:39:55;99488.55;;;3.12;81.97
38806;BME280;25635;51.146;17.162;2023-02-01T06:42:21;99490.98;;;3.13;81.66
38806;BME280;25635;51.146;17.162;2023-02-01T06:44:47;99491.86;;;3.14;81.40
38806;BME280;25635;51.146;17.162;2023-02-01T06:47:13;99492.03;;;3.16;81.46
38806;BME280;25635;51.146;17.162;2023-02-01T06:49:39;99497.06;;;3.18;80.83
38806;BME280;25635;51.146;17.162;2023-02-01T06:52:06;99498.30;;;3.21;81.56
38806;BME280;25635;51.146;17.162;2023-02-01T06:54:32;99504.00;;;3.22;81.38
38806;BME280;25635;51.146;17.162;2023-02-01T06:56:59;99509.70;;;3.24;81.10
38806;BME280;25635;51.146;17.162;2023-02-01T06:59:25;99508.16;;;3.27;80.52
38806;BME280;25635;51.146;17.162;2023-02-01T07:01:51;99505.80;;;3.29;81.18
38806;BME280;25635;51.146;17.162;2023-02-01T07:04:17;99510.10;;;3.30;80.65
38806;BME280;25635;51.146;17.162;2023-02-01T07:06:44;99505.66;;;3.33;79.74
38806;BME280;25635;51.146;17.162;2023-02-01T07:09:10;99501.73;;;3.37;80.24
38806;BME280;25635;51.146;17.162;2023-02-01T07:11:37;99502.42;;;3.38;80.37
38806;BME280;25635;51.146;17.162;2023-02-01T07:14:06;99502.27;;;3.38;80.68
38806;BME280;25635;51.146;17.162;2023-02-01T07:16:33;99503.13;;;3.39;80.40
38806;BME280;25635;51.146;17.162;2023-02-01T07:18:59;99501.40;;;3.39;79.87
38806;BME280;25635;51.146;17.162;2023-02-01T07:21:25;99505.39;;;3.41;79.77
38806;BME280;25635;51.146;17.162;2023-02-01T07:23:54;99505.91;;;3.43;80.09
38806;BME280;25635;51.146;17.162;2023-02-01T07:26:21;99505.92;;;3.43;79.88
38806;BME280;25635;51.146;17.162;2023-02-01T07:28:47;99501.95;;;3.42;79.64
38806;BME280;25635;51.146;17.162;2023-02-01T07:31:16;99504.89;;;3.43;79.03
38806;BME280;25635;51.146;17.162;2023-02-01T07:33:45;99500.77;;;3.45;79.19
38806;BME280;25635;51.146;17.162;2023-02-01T07:36:24;99505.61;;;3.47;79.68
38806;BME280;25635;51.146;17.162;2023-02-01T07:38:54;99503.55;;;3.47;79.78
38806;BME280;25635;51.146;17.162;2023-02-01T07:41:20;99506.99;;;3.47;79.61
38806;BME280;25635;51.146;17.162;2023-02-01T07:43:46;99500.10;;;3.47;79.20
38806;BME280;25635;51.146;17.162;2023-02-01T07:46:13;99502.19;;;3.48;79.58
38806;BME280;25635;51.146;17.162;2023-02-01T07:48:41;99498.56;;;3.49;79.92
38806;BME280;25635;51.146;17.162;2023-02-01T07:51:13;99499.95;;;3.49;80.11
38806;BME280;25635;51.146;17.162;2023-02-01T07:53:40;99492.88;;;3.49;79.78
38806;BME280;25635;51.146;17.162;2023-02-01T07:56:15;99489.27;;;3.50;79.94
38806;BME280;25635;51.146;17.162;2023-02-01T07:58:42;99486.16;;;3.49;80.20
38806;BME280;25635;51.146;17.162;2023-02-01T08:01:19;99485.30;;;3.49;80.44
38806;BME280;25635;51.146;17.162;2023-02-01T08:03:54;99487.55;;;3.51;80.59
38806;BME280;25635;51.146;17.162;2023-02-01T08:06:21;99491.20;;;3.52;80.35
38806;BME280;25635;51.146;17.162;2023-02-01T08:08:48;99488.77;;;3.53;80.62
38806;BME280;25635;51.146;17.162;2023-02-01T08:11:16;99490.88;;;3.54;80.99
38806;BME280;25635;51.146;17.162;2023-02-01T08:13:43;99486.55;;;3.54;80.01
38806;BME280;25635;51.146;17.162;2023-02-01T08:16:10;99488.96;;;3.55;80.28
38806;BME280;25635;51.146;17.162;2023-02-01T08:18:38;99487.08;;;3.55;80.84
38806;BME280;25635;51.146;17.162;2023-02-01T08:21:11;99484.50;;;3.55;80.96
38806;BME280;25635;51.146;17.162;2023-02-01T08:23:38;99487.27;;;3.56;80.35
38806;BME280;25635;51.146;17.162;2023-02-01T08:26:15;99485.04;;;3.58;80.61
38806;BME280;25635;51.146;17.162;2023-02-01T08:28:48;99478.15;;;3.59;80.98
38806;BME280;25635;51.146;17.162;2023-02-01T08:31:17;99478.02;;;3.62;81.40
38806;BME280;25635;51.146;17.162;2023-02-01T08:33:47;99472.17;;;3.64;81.01
38806;BME280;25635;51.146;17.162;2023-02-01T08:36:13;99474.26;;;3.68;80.93
38806;BME280;25635;51.146;17.162;2023-02-01T08:38:40;99474.29;;;3.71;80.95
38806;BME280;25635;51.146;17.162;2023-02-01T08:41:11;99471.55;;;3.74;80.46
38806;BME280;25635;51.146;17.162;2023-02-01T08:43:38;99464.69;;;3.77;80.50
38806;BME280;25635;51.146;17.162;2023-02-01T08:46:05;99461.77;;;3.79;80.56
38806;BME280;25635;51.146;17.162;2023-02-01T08:48:32;99466.27;;;3.80;80.56
38806;BME280;25635;51.146;17.162;2023-02-01T08:51:03;99462.13;;;3.82;80.65
38806;BME280;25635;51.146;17.162;2023-02-01T08:53:30;99470.25;;;3.84;81.19
38806;BME280;25635;51.146;17.162;2023-02-01T08:55:56;99471.12;;;3.84;80.27
38806;BME280;25635;51.146;17.162;2023-02-01T08:58:22;99464.39;;;3.83;80.22
38806;BME280;25635;51.146;17.162;2023-02-01T09:00:48;99467.31;;;3.82;80.36
38806;BME280;25635;51.146;17.162;2023-02-01T09:03:15;99475.58;;;3.82;80.13
38806;BME280;25635;51.146;17.162;2023-02-01T09:05:41;99470.77;;;3.83;80.95
38806;BME280;25635;51.146;17.162;2023-02-01T09:08:07;99470.08;;;3.83;80.29
38806;BME280;25635;51.146;17.162;2023-02-01T09:10:34;99472.48;;;3.83;80.54
38806;BME280;25635;51.146;17.162;2023-02-01T09:13:01;99472.48;;;3.81;80.88
38806;BME280;25635;51.146;17.162;2023-02-01T09:15:27;99477.99;;;3.81;81.23
38806;BME280;25635;51.146;17.162;2023-02-01T09:17:53;99478.32;;;3.80;81.47
38806;BME280;25635;51.146;17.162;2023-02-01T09:20:19;99477.96;;;3.77;81.69
38806;BME280;25635;51.146;17.162;2023-02-01T09:22:54;99471.00;;;3.71;82.42
38806;BME280;25635;51.146;17.162;2023-02-01T09:25:21;99469.25;;;3.66;82.75
38806;BME280;25635;51.146;17.162;2023-02-01T09:27:47;99470.95;;;3.63;83.17
38806;BME280;25635;51.146;17.162;2023-02-01T09:30:13;99466.27;;;3.61;83.48
38806;BME280;25635;51.146;17.162;2023-02-01T09:32:39;99468.67;;;3.60;83.51
38806;BME280;25635;51.146;17.162;2023-02-01T09:35:05;99464.89;;;3.60;83.46
38806;BME280;25635;51.146;17.162;2023-02-01T09:37:31;99464.04;;;3.61;83.12
38806;BME280;25635;51.146;17.162;2023-02-01T09:39:58;99459.92;;;3.64;82.49
38806;BME280;25635;51.146;17.162;2023-02-01T09:47:46;99459.16;;;3.77;83.08
38806;BME280;25635;51.146;17.162;2023-02-01T09:50:18;99457.81;;;3.81;82.66
38806;BME280;25635;51.146;17.162;2023-02-01T09:52:57;99462.84;;;3.85;82.07
38806;BME280;25635;51.146;17.162;2023-02-01T09:55:47;99460.64;;;3.89;81.87
38806;BME280;25635;51.146;17.162;2023-02-01T09:58:29;99457.53;;;3.92;81.77
38806;BME280;25635;51.146;17.162;2023-02-01T10:00:59;99453.77;;;3.95;81.86
38806;BME280;25635;51.146;17.162;2023-02-01T10:03:29;99453.10;;;3.98;82.14
38806;BME280;25635;51.146;17.162;2023-02-01T10:14:36;99443.18;;;4.11;81.60
38806;BME280;25635;51.146;17.162;2023-02-01T10:19:44;99446.33;;;4.17;81.57
38806;BME280;25635;51.146;17.162;2023-02-01T10:22:30;99442.70;;;4.18;81.16
38806;BME280;25635;51.146;17.162;2023-02-01T10:25:17;99437.70;;;4.16;80.97
38806;BME280;25635;51.146;17.162;2023-02-01T10:27:46;99438.87;;;4.12;80.00
38806;BME280;25635;51.146;17.162;2023-02-01T10:30:15;99430.23;;;4.09;81.05
38806;BME280;25635;51.146;17.162;2023-02-01T10:32:42;99426.95;;;4.10;81.43
38806;BME280;25635;51.146;17.162;2023-02-01T10:35:15;99422.99;;;4.12;81.54
38806;BME280;25635;51.146;17.162;2023-02-01T10:37:44;99421.44;;;4.11;80.55
38806;BME280;25635;51.146;17.162;2023-02-01T10:40:18;99415.56;;;4.09;81.01
38806;BME280;25635;51.146;17.162;2023-02-01T10:42:48;99414.52;;;4.07;80.67
38806;BME280;25635;51.146;17.162;2023-02-01T10:45:19;99407.78;;;4.06;80.69
38806;BME280;25635;51.146;17.162;2023-02-01T10:47:48;99405.20;;;4.07;81.15
38806;BME280;25635;51.146;17.162;2023-02-01T10:50:33;99411.25;;;4.10;81.34
38806;BME280;25635;51.146;17.162;2023-02-01T10:53:11;99402.30;;;4.11;80.49
38806;BME280;25635;51.146;17.162;2023-02-01T10:55:46;99393.33;;;4.11;80.56
38806;BME280;25635;51.146;17.162;2023-02-01T10:58:43;99399.55;;;4.12;80.52
38806;BME280;25635;51.146;17.162;2023-02-01T11:01:23;99391.94;;;4.12;80.90
38806;BME280;25635;51.146;17.162;2023-02-01T11:03:54;99392.12;;;4.14;80.84
38806;BME280;25635;51.146;17.162;2023-02-01T11:09:11;99389.20;;;4.15;80.51
38806;BME280;25635;51.146;17.162;2023-02-01T11:11:54;99379.55;;;4.14;80.59
38806;BME280;25635;51.146;17.162;2023-02-01T11:16:55;99371.92;;;4.09;81.90
38806;BME280;25635;51.146;17.162;2023-02-01T11:19:22;99371.37;;;4.03;82.04
38806;BME280;25635;51.146;17.162;2023-02-01T11:21:51;99362.56;;;4.01;82.52
38806;BME280;25635;51.146;17.162;2023-02-01T11:24:29;99364.62;;;3.98;82.55
38806;BME280;25635;51.146;17.162;2023-02-01T11:26:57;99358.39;;;3.96;83.08
38806;BME280;25635;51.146;17.162;2023-02-01T11:29:24;99362.01;;;3.93;83.00
38806;BME280;25635;51.146;17.162;2023-02-01T11:31:57;99358.89;;;3.91;83.46
38806;BME280;25635;51.146;17.162;2023-02-01T11:34:28;99358.71;;;3.88;83.76
38806;BME280;25635;51.146;17.162;2023-02-01T11:36:58;99356.44;;;3.84;84.10
38806;BME280;25635;51.146;17.162;2023-02-01T11:39:30;99347.44;;;3.80;84.50
38806;BME280;25635;51.146;17.162;2023-02-01T11:42:05;99346.05;;;3.76;84.84
38806;BME280;25635;51.146;17.162;2023-02-01T11:44:35;99338.96;;;3.75;85.08
38806;BME280;25635;51.146;17.162;2023-02-01T11:47:22;99337.58;;;3.73;85.03
38806;BME280;25635;51.146;17.162;2023-02-01T11:49:54;99328.44;;;3.74;85.03
38806;BME280;25635;51.146;17.162;2023-02-01T11:52:55;99321.02;;;3.73;84.69
38806;BME280;25635;51.146;17.162;2023-02-01T11:55:55;99326.20;;;3.74;84.55
38806;BME280;25635;51.146;17.162;2023-02-01T12:01:00;99319.30;;;3.75;85.48
38806;BME280;25635;51.146;17.162;2023-02-01T12:07:23;99318.25;;;3.71;85.97
38806;BME280;25635;51.146;17.162;2023-02-01T12:13:09;99315.47;;;3.65;86.61
38806;BME280;25635;51.146;17.162;2023-02-01T12:24:16;99313.85;;;3.55;87.93
38806;BME280;25635;51.146;17.162;2023-02-01T12:29:29;99305.39;;;3.53;88.07
38806;BME280;25635;51.146;17.162;2023-02-01T12:37:52;99309.40;;;3.60;88.03
38806;BME280;25635;51.146;17.162;2023-02-01T12:43:32;99305.11;;;3.65;88.45
38806;BME280;25635;51.146;17.162;2023-02-01T12:46:26;99310.30;;;3.66;88.81
38806;BME280;25635;51.146;17.162;2023-02-01T12:48:59;99312.20;;;3.65;89.03
38806;BME280;25635;51.146;17.162;2023-02-01T12:51:29;99319.76;;;3.63;89.06
38806;BME280;25635;51.146;17.162;2023-02-01T12:54:11;99319.75;;;3.61;89.03
38806;BME280;25635;51.146;17.162;2023-02-01T12:57:02;99319.23;;;3.61;89.00
38806;BME280;25635;51.146;17.162;2023-02-01T12:59:47;99319.91;;;3.59;89.38
38806;BME280;25635;51.146;17.162;2023-02-01T13:02:28;99328.17;;;3.58;89.04
38806;BME280;25635;51.146;17.162;2023-02-01T13:05:20;99331.78;;;3.55;89.27
38806;BME280;25635;51.146;17.162;2023-02-01T13:07:57;99333.33;;;3.54;89.28
38806;BME280;25635;51.146;17.162;2023-02-01T13:10:51;99342.27;;;3.52;89.64
38806;BME280;25635;51.146;17.162;2023-02-01T13:13:26;99347.42;;;3.50;89.80
38806;BME280;25635;51.146;17.162;2023-02-01T13:16:02;99352.41;;;3.48;90.05
38806;BME280;25635;51.146;17.162;2023-02-01T13:18:36;99353.09;;;3.47;90.15
38806;BME280;25635;51.146;17.162;2023-02-01T13:21:26;99355.17;;;3.48;90.50
38806;BME280;25635;51.146;17.162;2023-02-01T13:23:53;99359.63;;;3.47;90.80
38806;BME280;25635;51.146;17.162;2023-02-01T13:26:19;99360.86;;;3.49;90.72
38806;BME280;25635;51.146;17.162;2023-02-01T13:28:49;99355.86;;;3.49;90.41
38806;BME280;25635;51.146;17.162;2023-02-01T13:43:22;99361.09;;;3.56;90.30
38806;BME280;25635;51.146;17.162;2023-02-01T13:45:53;99361.63;;;3.58;89.71
38806;BME280;25635;51.146;17.162;2023-02-01T13:48:46;99364.05;;;3.60;89.75
38806;BME280;25635;51.146;17.162;2023-02-01T13:51:13;99357.31;;;3.59;90.04
38806;BME280;25635;51.146;17.162;2023-02-01T13:53:48;99361.28;;;3.58;89.86
38806;BME280;25635;51.146;17.162;2023-02-01T13:56:20;99362.83;;;3.58;90.09
38806;BME280;25635;51.146;17.162;2023-02-01T13:58:49;99364.20;;;3.59;89.96
38806;BME280;25635;51.146;17.162;2023-02-01T14:11:37;99362.04;;;3.71;89.93
38806;BME280;25635;51.146;17.162;2023-02-01T14:16:39;99360.05;;;3.83;89.57
38806;BME280;25635;51.146;17.162;2023-02-01T14:19:26;99354.39;;;3.88;88.83
38806;BME280;25635;51.146;17.162;2023-02-01T14:21:57;99358.02;;;3.92;88.00
38806;BME280;25635;51.146;17.162;2023-02-01T14:24:32;99353.90;;;3.93;87.82
38806;BME280;25635;51.146;17.162;2023-02-01T14:27:02;99356.66;;;3.95;88.04
38806;BME280;25635;51.146;17.162;2023-02-01T14:29:36;99355.98;;;3.95;87.60
38806;BME280;25635;51.146;17.162;2023-02-01T14:32:18;99360.63;;;3.92;87.76
38806;BME280;25635;51.146;17.162;2023-02-01T14:34:55;99366.29;;;3.89;88.52
38806;BME280;25635;51.146;17.162;2023-02-01T14:53:02;99374.35;;;3.54;90.76
38806;BME280;25635;51.146;17.162;2023-02-01T14:58:23;99380.33;;;3.48;91.08
38806;BME280;25635;51.146;17.162;2023-02-01T15:00:56;99382.20;;;3.44;91.07
38806;BME280;25635;51.146;17.162;2023-02-01T15:06:12;99381.84;;;3.41;91.03
38806;BME280;25635;51.146;17.162;2023-02-01T15:08:42;99384.23;;;3.40;91.11
38806;BME280;25635;51.146;17.162;2023-02-01T15:11:15;99380.27;;;3.41;90.70
38806;BME280;25635;51.146;17.162;2023-02-01T15:13:48;99381.31;;;3.42;90.77
38806;BME280;25635;51.146;17.162;2023-02-01T15:16:17;99382.52;;;3.42;90.67
38806;BME280;25635;51.146;17.162;2023-02-01T15:18:43;99382.34;;;3.43;90.41
38806;BME280;25635;51.146;17.162;2023-02-01T15:21:17;99371.51;;;3.43;90.21